sensor_id;sensor_type;location;lat;lon;timestamp;P1;durP1;ratioP1;P2;durP2;ratioP2
80891;SDS011;70343;51.530;5.050;2023-08-24T00:00:20;7.38;;;4.20;;
80891;SDS011;70343;51.530;5.050;2023-08-24T00:02:46;5.00;;;3.70;;
80891;SDS011;70343;51.530;5.050;2023-08-24T00:05:12;6.72;;;4.05;;
80891;SDS011;70343;51.530;5.050;2023-08-24T00:07:38;4.15;;;3.38;;
80891;SDS011;70343;51.530;5.050;2023-08-24T00:10:04;3.97;;;3.17;;
80891;SDS011;70343;51.530;5.050;2023-08-24T00:12:30;7.60;;;4.30;;
80891;SDS011;70343;51.530;5.050;2023-08-24T00:14:55;6.70;;;4.43;;
80891;SDS011;70343;51.530;5.050;2023-08-24T00:17:21;7.65;;;3.83;;
80891;SDS011;70343;51.530;5.050;2023-08-24T00:19:48;9.63;;;4.63;;
80891;SDS011;70343;51.530;5.050;2023-08-24T00:22:14;8.88;;;4.45;;
80891;SDS011;70343;51.530;5.050;2023-08-24T00:24:39;5.55;;;4.35;;
80891;SDS011;70343;51.530;5.050;2023-08-24T00:27:05;6.75;;;3.47;;
80891;SDS011;70343;51.530;5.050;2023-08-24T00:29:30;5.38;;;4.30;;
80891;SDS011;70343;51.530;5.050;2023-08-24T00:31:56;9.15;;;4.60;;
80891;SDS011;70343;51.530;5.050;2023-08-24T00:34:22;8.60;;;4.20;;
80891;SDS011;70343;51.530;5.050;2023-08-24T00:36:48;7.57;;;4.45;;
80891;SDS011;70343;51.530;5.050;2023-08-24T00:39:13;5.88;;;4.07;;
80891;SDS011;70343;51.530;5.050;2023-08-24T00:41:39;7.70;;;5.32;;
80891;SDS011;70343;51.530;5.050;2023-08-24T00:44:06;7.75;;;4.70;;
80891;SDS011;70343;51.530;5.050;2023-08-24T00:46:32;6.20;;;4.18;;
80891;SDS011;70343;51.530;5.050;2023-08-24T00:48:59;10.48;;;4.25;;
80891;SDS011;70343;51.530;5.050;2023-08-24T00:51:25;6.85;;;5.15;;
80891;SDS011;70343;51.530;5.050;2023-08-24T00:53:51;6.38;;;4.60;;
80891;SDS011;70343;51.530;5.050;2023-08-24T00:56:18;9.68;;;4.57;;
80891;SDS011;70343;51.530;5.050;2023-08-24T00:58:49;7.68;;;4.82;;
80891;SDS011;70343;51.530;5.050;2023-08-24T01:01:16;6.25;;;4.38;;
80891;SDS011;70343;51.530;5.050;2023-08-24T01:03:43;7.47;;;5.10;;
80891;SDS011;70343;51.530;5.050;2023-08-24T01:06:08;5.05;;;4.55;;
80891;SDS011;70343;51.530;5.050;2023-08-24T01:08:34;7.85;;;4.47;;
80891;SDS011;70343;51.530;5.050;2023-08-24T01:13:53;6.90;;;4.90;;
80891;SDS011;70343;51.530;5.050;2023-08-24T01:16:33;5.95;;;3.85;;
80891;SDS011;70343;51.530;5.050;2023-08-24T01:19:01;7.72;;;4.63;;
80891;SDS011;70343;51.530;5.050;2023-08-24T01:21:32;7.10;;;5.10;;
80891;SDS011;70343;51.530;5.050;2023-08-24T01:24:03;7.03;;;4.72;;
80891;SDS011;70343;51.530;5.050;2023-08-24T01:26:36;6.90;;;4.30;;
80891;SDS011;70343;51.530;5.050;2023-08-24T01:29:05;6.78;;;5.20;;
80891;SDS011;70343;51.530;5.050;2023-08-24T01:31:32;5.78;;;4.85;;
80891;SDS011;70343;51.530;5.050;2023-08-24T01:33:57;5.97;;;4.88;;
80891;SDS011;70343;51.530;5.050;2023-08-24T01:36:23;9.40;;;5.00;;
80891;SDS011;70343;51.530;5.050;2023-08-24T01:39:01;7.82;;;5.38;;
80891;SDS011;70343;51.530;5.050;2023-08-24T01:41:34;7.70;;;4.88;;
80891;SDS011;70343;51.530;5.050;2023-08-24T01:44:03;8.63;;;5.63;;
80891;SDS011;70343;51.530;5.050;2023-08-24T01:46:32;6.53;;;5.15;;
80891;SDS011;70343;51.530;5.050;2023-08-24T01:48:59;6.28;;;5.20;;
80891;SDS011;70343;51.530;5.050;2023-08-24T01:51:25;7.07;;;4.97;;
80891;SDS011;70343;51.530;5.050;2023-08-24T01:53:51;9.07;;;5.13;;
80891;SDS011;70343;51.530;5.050;2023-08-24T01:56:18;9.32;;;6.15;;
80891;SDS011;70343;51.530;5.050;2023-08-24T01:58:43;6.35;;;4.63;;
80891;SDS011;70343;51.530;5.050;2023-08-24T02:01:09;11.43;;;5.05;;
80891;SDS011;70343;51.530;5.050;2023-08-24T02:03:35;5.43;;;4.88;;
80891;SDS011;70343;51.530;5.050;2023-08-24T02:06:01;10.65;;;5.65;;
80891;SDS011;70343;51.530;5.050;2023-08-24T02:08:29;5.68;;;5.13;;
80891;SDS011;70343;51.530;5.050;2023-08-24T02:10:55;11.93;;;5.47;;
80891;SDS011;70343;51.530;5.050;2023-08-24T02:13:20;6.13;;;4.72;;
80891;SDS011;70343;51.530;5.050;2023-08-24T02:15:46;6.38;;;4.85;;
80891;SDS011;70343;51.530;5.050;2023-08-24T02:18:11;9.38;;;5.43;;
80891;SDS011;70343;51.530;5.050;2023-08-24T02:20:37;9.75;;;5.75;;
80891;SDS011;70343;51.530;5.050;2023-08-24T02:23:03;8.13;;;5.45;;
80891;SDS011;70343;51.530;5.050;2023-08-24T02:25:29;9.27;;;5.95;;
80891;SDS011;70343;51.530;5.050;2023-08-24T02:30:23;9.93;;;6.00;;
80891;SDS011;70343;51.530;5.050;2023-08-24T02:32:49;10.05;;;6.88;;
80891;SDS011;70343;51.530;5.050;2023-08-24T02:35:15;12.25;;;5.95;;
80891;SDS011;70343;51.530;5.050;2023-08-24T02:37:41;10.60;;;6.43;;
80891;SDS011;70343;51.530;5.050;2023-08-24T02:40:06;8.85;;;5.40;;
80891;SDS011;70343;51.530;5.050;2023-08-24T02:42:34;11.13;;;6.05;;
80891;SDS011;70343;51.530;5.050;2023-08-24T02:45:00;12.18;;;6.50;;
80891;SDS011;70343;51.530;5.050;2023-08-24T02:47:26;10.50;;;7.50;;
80891;SDS011;70343;51.530;5.050;2023-08-24T02:49:52;9.60;;;6.43;;
80891;SDS011;70343;51.530;5.050;2023-08-24T02:52:17;10.32;;;7.05;;
80891;SDS011;70343;51.530;5.050;2023-08-24T02:54:43;11.52;;;7.25;;
80891;SDS011;70343;51.530;5.050;2023-08-24T02:57:09;10.88;;;7.80;;
80891;SDS011;70343;51.530;5.050;2023-08-24T02:59:34;9.13;;;7.60;;
80891;SDS011;70343;51.530;5.050;2023-08-24T03:02:00;13.02;;;7.57;;
80891;SDS011;70343;51.530;5.050;2023-08-24T03:04:26;10.70;;;7.90;;
80891;SDS011;70343;51.530;5.050;2023-08-24T03:06:52;13.18;;;7.75;;
80891;SDS011;70343;51.530;5.050;2023-08-24T03:09:18;14.27;;;8.38;;
80891;SDS011;70343;51.530;5.050;2023-08-24T03:11:43;10.13;;;8.20;;
80891;SDS011;70343;51.530;5.050;2023-08-24T03:14:10;13.98;;;8.90;;
80891;SDS011;70343;51.530;5.050;2023-08-24T03:16:37;12.77;;;8.48;;
80891;SDS011;70343;51.530;5.050;2023-08-24T03:19:04;13.60;;;8.45;;
80891;SDS011;70343;51.530;5.050;2023-08-24T03:21:30;13.60;;;8.73;;
80891;SDS011;70343;51.530;5.050;2023-08-24T03:23:55;11.88;;;8.15;;
80891;SDS011;70343;51.530;5.050;2023-08-24T03:26:21;13.38;;;8.82;;
80891;SDS011;70343;51.530;5.050;2023-08-24T03:28:48;13.20;;;8.93;;
80891;SDS011;70343;51.530;5.050;2023-08-24T03:31:14;11.93;;;8.15;;
80891;SDS011;70343;51.530;5.050;2023-08-24T03:33:40;12.13;;;9.20;;
80891;SDS011;70343;51.530;5.050;2023-08-24T03:36:06;13.05;;;9.80;;
80891;SDS011;70343;51.530;5.050;2023-08-24T03:38:31;12.50;;;8.48;;
80891;SDS011;70343;51.530;5.050;2023-08-24T03:41:01;9.82;;;7.50;;
80891;SDS011;70343;51.530;5.050;2023-08-24T03:43:30;11.20;;;8.45;;
80891;SDS011;70343;51.530;5.050;2023-08-24T03:45:58;10.95;;;9.13;;
80891;SDS011;70343;51.530;5.050;2023-08-24T03:48:23;12.52;;;8.88;;
80891;SDS011;70343;51.530;5.050;2023-08-24T03:50:49;15.30;;;9.95;;
80891;SDS011;70343;51.530;5.050;2023-08-24T03:53:14;12.68;;;9.68;;
80891;SDS011;70343;51.530;5.050;2023-08-24T03:55:40;11.23;;;8.20;;
80891;SDS011;70343;51.530;5.050;2023-08-24T03:58:06;9.98;;;6.85;;
80891;SDS011;70343;51.530;5.050;2023-08-24T04:00:31;12.10;;;8.45;;
80891;SDS011;70343;51.530;5.050;2023-08-24T04:02:59;12.82;;;8.50;;
80891;SDS011;70343;51.530;5.050;2023-08-24T04:05:25;11.55;;;8.60;;
80891;SDS011;70343;51.530;5.050;2023-08-24T04:07:52;13.63;;;9.90;;
80891;SDS011;70343;51.530;5.050;2023-08-24T04:10:17;15.50;;;10.10;;
80891;SDS011;70343;51.530;5.050;2023-08-24T04:12:43;13.15;;;9.60;;
80891;SDS011;70343;51.530;5.050;2023-08-24T04:15:08;13.85;;;10.52;;
80891;SDS011;70343;51.530;5.050;2023-08-24T04:17:34;15.50;;;9.73;;
80891;SDS011;70343;51.530;5.050;2023-08-24T04:20:00;13.50;;;10.10;;
80891;SDS011;70343;51.530;5.050;2023-08-24T04:22:25;14.68;;;10.73;;
80891;SDS011;70343;51.530;5.050;2023-08-24T04:24:51;13.88;;;11.10;;
80891;SDS011;70343;51.530;5.050;2023-08-24T04:27:16;12.85;;;8.82;;
80891;SDS011;70343;51.530;5.050;2023-08-24T04:29:42;12.68;;;10.70;;
80891;SDS011;70343;51.530;5.050;2023-08-24T04:32:08;17.00;;;10.30;;
80891;SDS011;70343;51.530;5.050;2023-08-24T04:34:33;14.35;;;10.68;;
80891;SDS011;70343;51.530;5.050;2023-08-24T04:36:58;12.38;;;9.73;;
80891;SDS011;70343;51.530;5.050;2023-08-24T04:39:24;16.38;;;11.20;;
80891;SDS011;70343;51.530;5.050;2023-08-24T04:41:50;16.35;;;11.35;;
80891;SDS011;70343;51.530;5.050;2023-08-24T04:44:15;20.20;;;14.02;;
80891;SDS011;70343;51.530;5.050;2023-08-24T04:46:41;15.88;;;10.65;;
80891;SDS011;70343;51.530;5.050;2023-08-24T04:49:07;17.40;;;11.95;;
80891;SDS011;70343;51.530;5.050;2023-08-24T04:51:32;14.55;;;11.48;;
80891;SDS011;70343;51.530;5.050;2023-08-24T04:53:58;19.27;;;11.57;;
80891;SDS011;70343;51.530;5.050;2023-08-24T04:56:23;17.20;;;11.38;;
80891;SDS011;70343;51.530;5.050;2023-08-24T04:58:58;18.90;;;12.57;;
80891;SDS011;70343;51.530;5.050;2023-08-24T05:01:25;17.95;;;12.80;;
80891;SDS011;70343;51.530;5.050;2023-08-24T05:03:57;12.90;;;10.05;;
80891;SDS011;70343;51.530;5.050;2023-08-24T05:06:23;18.33;;;11.63;;
80891;SDS011;70343;51.530;5.050;2023-08-24T05:08:48;18.33;;;13.20;;
80891;SDS011;70343;51.530;5.050;2023-08-24T05:11:16;14.98;;;12.45;;
80891;SDS011;70343;51.530;5.050;2023-08-24T05:13:43;19.55;;;13.90;;
80891;SDS011;70343;51.530;5.050;2023-08-24T05:16:09;16.65;;;12.82;;
80891;SDS011;70343;51.530;5.050;2023-08-24T05:18:35;19.25;;;13.45;;
80891;SDS011;70343;51.530;5.050;2023-08-24T05:21:02;15.20;;;10.93;;
80891;SDS011;70343;51.530;5.050;2023-08-24T05:23:28;17.85;;;12.38;;
80891;SDS011;70343;51.530;5.050;2023-08-24T05:25:58;16.67;;;13.60;;
80891;SDS011;70343;51.530;5.050;2023-08-24T05:28:25;19.00;;;12.43;;
80891;SDS011;70343;51.530;5.050;2023-08-24T05:30:51;18.23;;;13.95;;
80891;SDS011;70343;51.530;5.050;2023-08-24T05:33:17;16.20;;;12.30;;
80891;SDS011;70343;51.530;5.050;2023-08-24T05:35:43;21.98;;;13.20;;
80891;SDS011;70343;51.530;5.050;2023-08-24T05:38:08;19.10;;;14.02;;
80891;SDS011;70343;51.530;5.050;2023-08-24T05:40:34;19.58;;;13.57;;
80891;SDS011;70343;51.530;5.050;2023-08-24T05:43:00;24.30;;;14.45;;
80891;SDS011;70343;51.530;5.050;2023-08-24T05:45:25;17.50;;;13.32;;
80891;SDS011;70343;51.530;5.050;2023-08-24T05:47:51;21.45;;;14.55;;
80891;SDS011;70343;51.530;5.050;2023-08-24T05:50:17;17.10;;;13.38;;
80891;SDS011;70343;51.530;5.050;2023-08-24T05:52:42;19.20;;;14.48;;
80891;SDS011;70343;51.530;5.050;2023-08-24T05:55:07;19.80;;;14.93;;
80891;SDS011;70343;51.530;5.050;2023-08-24T05:57:33;19.55;;;14.80;;
80891;SDS011;70343;51.530;5.050;2023-08-24T05:59:58;20.15;;;14.35;;
80891;SDS011;70343;51.530;5.050;2023-08-24T06:02:24;22.05;;;12.70;;
80891;SDS011;70343;51.530;5.050;2023-08-24T06:04:49;18.20;;;15.15;;
80891;SDS011;70343;51.530;5.050;2023-08-24T06:07:16;16.92;;;13.70;;
80891;SDS011;70343;51.530;5.050;2023-08-24T06:09:42;17.13;;;14.07;;
80891;SDS011;70343;51.530;5.050;2023-08-24T06:12:08;15.30;;;12.15;;
80891;SDS011;70343;51.530;5.050;2023-08-24T06:14:33;18.60;;;13.90;;
80891;SDS011;70343;51.530;5.050;2023-08-24T06:16:59;17.65;;;12.48;;
80891;SDS011;70343;51.530;5.050;2023-08-24T06:19:24;16.38;;;12.43;;
80891;SDS011;70343;51.530;5.050;2023-08-24T06:21:50;15.60;;;13.82;;
80891;SDS011;70343;51.530;5.050;2023-08-24T06:24:15;16.73;;;13.93;;
80891;SDS011;70343;51.530;5.050;2023-08-24T06:26:41;15.80;;;13.30;;
80891;SDS011;70343;51.530;5.050;2023-08-24T06:29:06;16.55;;;13.75;;
80891;SDS011;70343;51.530;5.050;2023-08-24T06:31:32;16.48;;;13.25;;
80891;SDS011;70343;51.530;5.050;2023-08-24T06:33:58;19.27;;;13.32;;
80891;SDS011;70343;51.530;5.050;2023-08-24T06:36:24;16.23;;;14.55;;
80891;SDS011;70343;51.530;5.050;2023-08-24T06:38:50;15.23;;;13.48;;
80891;SDS011;70343;51.530;5.050;2023-08-24T06:41:16;16.52;;;12.85;;
80891;SDS011;70343;51.530;5.050;2023-08-24T06:43:42;16.95;;;14.35;;
80891;SDS011;70343;51.530;5.050;2023-08-24T06:46:07;17.02;;;13.82;;
80891;SDS011;70343;51.530;5.050;2023-08-24T06:48:36;17.23;;;14.45;;
80891;SDS011;70343;51.530;5.050;2023-08-24T06:51:02;14.90;;;13.18;;
80891;SDS011;70343;51.530;5.050;2023-08-24T06:53:28;20.30;;;14.48;;
80891;SDS011;70343;51.530;5.050;2023-08-24T06:55:56;16.02;;;13.63;;
80891;SDS011;70343;51.530;5.050;2023-08-24T06:58:22;19.15;;;12.82;;
80891;SDS011;70343;51.530;5.050;2023-08-24T07:00:48;15.65;;;13.43;;
80891;SDS011;70343;51.530;5.050;2023-08-24T07:03:19;19.00;;;12.70;;
80891;SDS011;70343;51.530;5.050;2023-08-24T07:05:45;21.90;;;13.93;;
80891;SDS011;70343;51.530;5.050;2023-08-24T07:08:11;19.33;;;13.75;;
80891;SDS011;70343;51.530;5.050;2023-08-24T07:10:38;18.05;;;14.30;;
80891;SDS011;70343;51.530;5.050;2023-08-24T07:13:05;18.77;;;13.63;;
80891;SDS011;70343;51.530;5.050;2023-08-24T07:15:32;15.55;;;13.93;;
80891;SDS011;70343;51.530;5.050;2023-08-24T07:18:02;18.63;;;14.23;;
80891;SDS011;70343;51.530;5.050;2023-08-24T07:20:28;21.92;;;13.98;;
80891;SDS011;70343;51.530;5.050;2023-08-24T07:22:54;17.55;;;13.98;;
80891;SDS011;70343;51.530;5.050;2023-08-24T07:25:19;17.98;;;13.98;;
80891;SDS011;70343;51.530;5.050;2023-08-24T07:27:46;13.98;;;12.40;;
80891;SDS011;70343;51.530;5.050;2023-08-24T07:30:12;18.45;;;13.05;;
80891;SDS011;70343;51.530;5.050;2023-08-24T07:32:38;16.38;;;14.10;;
80891;SDS011;70343;51.530;5.050;2023-08-24T07:35:04;16.88;;;12.95;;
80891;SDS011;70343;51.530;5.050;2023-08-24T07:37:31;15.75;;;13.15;;
80891;SDS011;70343;51.530;5.050;2023-08-24T07:39:57;18.77;;;12.57;;
80891;SDS011;70343;51.530;5.050;2023-08-24T07:42:22;16.38;;;12.80;;
80891;SDS011;70343;51.530;5.050;2023-08-24T07:44:48;16.60;;;13.50;;
80891;SDS011;70343;51.530;5.050;2023-08-24T07:47:15;17.52;;;13.25;;
80891;SDS011;70343;51.530;5.050;2023-08-24T07:49:40;15.88;;;14.02;;
80891;SDS011;70343;51.530;5.050;2023-08-24T07:52:09;19.80;;;14.32;;
80891;SDS011;70343;51.530;5.050;2023-08-24T07:54:38;15.02;;;13.43;;
80891;SDS011;70343;51.530;5.050;2023-08-24T07:57:07;15.55;;;13.50;;
80891;SDS011;70343;51.530;5.050;2023-08-24T07:59:32;17.42;;;14.20;;
80891;SDS011;70343;51.530;5.050;2023-08-24T08:01:58;16.33;;;13.90;;
80891;SDS011;70343;51.530;5.050;2023-08-24T08:04:24;15.85;;;14.15;;
80891;SDS011;70343;51.530;5.050;2023-08-24T08:06:49;17.23;;;12.43;;
80891;SDS011;70343;51.530;5.050;2023-08-24T08:09:15;16.17;;;13.93;;
80891;SDS011;70343;51.530;5.050;2023-08-24T08:11:41;15.55;;;14.00;;
80891;SDS011;70343;51.530;5.050;2023-08-24T08:14:08;14.52;;;13.02;;
80891;SDS011;70343;51.530;5.050;2023-08-24T08:16:34;16.65;;;14.60;;
80891;SDS011;70343;51.530;5.050;2023-08-24T08:19:01;16.45;;;13.52;;
80891;SDS011;70343;51.530;5.050;2023-08-24T08:21:27;14.55;;;13.02;;
80891;SDS011;70343;51.530;5.050;2023-08-24T08:23:53;16.10;;;13.45;;
80891;SDS011;70343;51.530;5.050;2023-08-24T08:26:18;17.95;;;13.93;;
80891;SDS011;70343;51.530;5.050;2023-08-24T08:28:44;17.70;;;13.63;;
80891;SDS011;70343;51.530;5.050;2023-08-24T08:31:09;15.23;;;13.50;;
80891;SDS011;70343;51.530;5.050;2023-08-24T08:33:35;14.45;;;12.77;;
80891;SDS011;70343;51.530;5.050;2023-08-24T08:36:02;14.15;;;12.75;;
80891;SDS011;70343;51.530;5.050;2023-08-24T08:38:28;15.95;;;14.25;;
80891;SDS011;70343;51.530;5.050;2023-08-24T08:40:54;17.55;;;14.45;;
80891;SDS011;70343;51.530;5.050;2023-08-24T08:43:22;14.40;;;12.90;;
80891;SDS011;70343;51.530;5.050;2023-08-24T08:45:51;18.60;;;13.73;;
80891;SDS011;70343;51.530;5.050;2023-08-24T08:48:20;13.38;;;12.07;;
80891;SDS011;70343;51.530;5.050;2023-08-24T08:50:50;15.48;;;13.77;;
80891;SDS011;70343;51.530;5.050;2023-08-24T08:53:20;18.13;;;13.93;;
80891;SDS011;70343;51.530;5.050;2023-08-24T08:55:46;18.85;;;13.98;;
80891;SDS011;70343;51.530;5.050;2023-08-24T08:58:13;14.52;;;13.05;;
80891;SDS011;70343;51.530;5.050;2023-08-24T09:00:39;18.95;;;14.45;;
80891;SDS011;70343;51.530;5.050;2023-08-24T09:03:05;17.33;;;13.10;;
80891;SDS011;70343;51.530;5.050;2023-08-24T09:05:32;15.65;;;13.57;;
80891;SDS011;70343;51.530;5.050;2023-08-24T09:07:57;16.67;;;13.32;;
80891;SDS011;70343;51.530;5.050;2023-08-24T09:10:24;15.43;;;12.63;;
80891;SDS011;70343;51.530;5.050;2023-08-24T09:12:50;14.40;;;12.90;;
80891;SDS011;70343;51.530;5.050;2023-08-24T09:15:23;16.63;;;13.05;;
80891;SDS011;70343;51.530;5.050;2023-08-24T09:17:54;14.75;;;12.45;;
80891;SDS011;70343;51.530;5.050;2023-08-24T09:20:27;14.00;;;12.38;;
80891;SDS011;70343;51.530;5.050;2023-08-24T09:22:54;15.45;;;12.52;;
80891;SDS011;70343;51.530;5.050;2023-08-24T09:25:22;16.30;;;12.15;;
80891;SDS011;70343;51.530;5.050;2023-08-24T09:30:23;14.63;;;11.10;;
80891;SDS011;70343;51.530;5.050;2023-08-24T09:32:52;14.73;;;11.50;;
80891;SDS011;70343;51.530;5.050;2023-08-24T09:35:19;17.25;;;11.68;;
80891;SDS011;70343;51.530;5.050;2023-08-24T09:37:46;13.82;;;10.60;;
80891;SDS011;70343;51.530;5.050;2023-08-24T09:40:15;18.98;;;11.35;;
80891;SDS011;70343;51.530;5.050;2023-08-24T09:42:43;13.63;;;11.48;;
80891;SDS011;70343;51.530;5.050;2023-08-24T09:45:12;14.77;;;10.80;;
80891;SDS011;70343;51.530;5.050;2023-08-24T09:47:39;16.23;;;11.48;;
80891;SDS011;70343;51.530;5.050;2023-08-24T09:50:05;14.57;;;11.05;;
80891;SDS011;70343;51.530;5.050;2023-08-24T09:52:32;13.90;;;11.70;;
80891;SDS011;70343;51.530;5.050;2023-08-24T09:55:05;13.38;;;11.15;;
80891;SDS011;70343;51.530;5.050;2023-08-24T09:57:41;13.38;;;11.98;;
80891;SDS011;70343;51.530;5.050;2023-08-24T10:00:08;13.32;;;11.93;;
80891;SDS011;70343;51.530;5.050;2023-08-24T10:02:48;15.45;;;12.95;;
80891;SDS011;70343;51.530;5.050;2023-08-24T10:05:16;15.65;;;11.68;;
80891;SDS011;70343;51.530;5.050;2023-08-24T10:07:50;14.55;;;12.88;;
80891;SDS011;70343;51.530;5.050;2023-08-24T10:10:18;15.65;;;11.88;;
80891;SDS011;70343;51.530;5.050;2023-08-24T10:12:47;16.80;;;12.75;;
80891;SDS011;70343;51.530;5.050;2023-08-24T10:15:17;16.10;;;12.95;;
80891;SDS011;70343;51.530;5.050;2023-08-24T10:17:43;16.80;;;11.35;;
80891;SDS011;70343;51.530;5.050;2023-08-24T10:20:10;14.45;;;11.65;;
80891;SDS011;70343;51.530;5.050;2023-08-24T10:22:36;17.08;;;12.23;;
80891;SDS011;70343;51.530;5.050;2023-08-24T10:25:06;19.15;;;13.82;;
80891;SDS011;70343;51.530;5.050;2023-08-24T10:27:33;16.73;;;11.88;;
80891;SDS011;70343;51.530;5.050;2023-08-24T10:29:59;18.05;;;11.00;;
80891;SDS011;70343;51.530;5.050;2023-08-24T10:32:24;17.20;;;11.23;;
80891;SDS011;70343;51.530;5.050;2023-08-24T10:34:51;18.05;;;10.68;;
80891;SDS011;70343;51.530;5.050;2023-08-24T10:37:22;13.63;;;10.20;;
80891;SDS011;70343;51.530;5.050;2023-08-24T10:39:50;13.93;;;10.60;;
80891;SDS011;70343;51.530;5.050;2023-08-24T10:42:15;15.63;;;10.43;;
80891;SDS011;70343;51.530;5.050;2023-08-24T10:44:44;12.60;;;11.25;;
80891;SDS011;70343;51.530;5.050;2023-08-24T10:47:18;14.18;;;10.98;;
80891;SDS011;70343;51.530;5.050;2023-08-24T10:54:54;14.98;;;11.95;;
80891;SDS011;70343;51.530;5.050;2023-08-24T10:57:24;15.68;;;13.13;;
80891;SDS011;70343;51.530;5.050;2023-08-24T10:59:59;14.90;;;12.25;;
80891;SDS011;70343;51.530;5.050;2023-08-24T11:02:30;12.75;;;11.45;;
80891;SDS011;70343;51.530;5.050;2023-08-24T11:07:33;13.60;;;12.23;;
80891;SDS011;70343;51.530;5.050;2023-08-24T11:09:58;14.38;;;12.63;;
80891;SDS011;70343;51.530;5.050;2023-08-24T11:12:24;15.32;;;12.15;;
80891;SDS011;70343;51.530;5.050;2023-08-24T11:14:50;17.52;;;11.43;;
80891;SDS011;70343;51.530;5.050;2023-08-24T11:17:19;31.08;;;13.15;;
80891;SDS011;70343;51.530;5.050;2023-08-24T11:19:49;17.45;;;11.27;;
80891;SDS011;70343;51.530;5.050;2023-08-24T11:22:17;12.77;;;9.77;;
80891;SDS011;70343;51.530;5.050;2023-08-24T11:24:43;13.95;;;9.77;;
80891;SDS011;70343;51.530;5.050;2023-08-24T11:27:09;14.85;;;10.88;;
80891;SDS011;70343;51.530;5.050;2023-08-24T11:29:35;13.75;;;8.88;;
80891;SDS011;70343;51.530;5.050;2023-08-24T11:32:00;12.60;;;9.10;;
80891;SDS011;70343;51.530;5.050;2023-08-24T11:34:27;13.00;;;9.18;;
80891;SDS011;70343;51.530;5.050;2023-08-24T11:36:54;13.77;;;9.25;;
80891;SDS011;70343;51.530;5.050;2023-08-24T11:39:20;12.75;;;8.82;;
80891;SDS011;70343;51.530;5.050;2023-08-24T11:44:26;11.93;;;8.20;;
80891;SDS011;70343;51.530;5.050;2023-08-24T11:46:52;11.30;;;8.48;;
80891;SDS011;70343;51.530;5.050;2023-08-24T11:49:18;11.40;;;8.27;;
80891;SDS011;70343;51.530;5.050;2023-08-24T11:51:43;12.50;;;8.70;;
80891;SDS011;70343;51.530;5.050;2023-08-24T11:54:09;14.30;;;8.30;;
80891;SDS011;70343;51.530;5.050;2023-08-24T11:56:41;9.20;;;7.45;;
80891;SDS011;70343;51.530;5.050;2023-08-24T11:59:11;12.10;;;7.95;;
80891;SDS011;70343;51.530;5.050;2023-08-24T12:01:38;11.13;;;7.25;;
80891;SDS011;70343;51.530;5.050;2023-08-24T12:04:06;10.45;;;7.88;;
80891;SDS011;70343;51.530;5.050;2023-08-24T12:06:31;11.38;;;7.70;;
80891;SDS011;70343;51.530;5.050;2023-08-24T12:08:58;15.15;;;7.90;;
80891;SDS011;70343;51.530;5.050;2023-08-24T12:11:24;11.15;;;7.53;;
80891;SDS011;70343;51.530;5.050;2023-08-24T12:13:53;8.75;;;7.32;;
80891;SDS011;70343;51.530;5.050;2023-08-24T12:16:20;8.75;;;6.88;;
80891;SDS011;70343;51.530;5.050;2023-08-24T12:18:54;9.25;;;7.45;;
80891;SDS011;70343;51.530;5.050;2023-08-24T12:21:21;8.60;;;6.70;;
80891;SDS011;70343;51.530;5.050;2023-08-24T12:26:28;11.52;;;7.07;;
80891;SDS011;70343;51.530;5.050;2023-08-24T12:29:12;9.55;;;6.72;;
80891;SDS011;70343;51.530;5.050;2023-08-24T12:31:41;9.65;;;6.82;;
80891;SDS011;70343;51.530;5.050;2023-08-24T12:34:09;9.20;;;6.07;;
80891;SDS011;70343;51.530;5.050;2023-08-24T12:36:35;10.38;;;6.20;;
80891;SDS011;70343;51.530;5.050;2023-08-24T12:39:03;8.38;;;6.47;;
80891;SDS011;70343;51.530;5.050;2023-08-24T12:41:30;9.35;;;6.32;;
80891;SDS011;70343;51.530;5.050;2023-08-24T12:43:55;7.32;;;6.57;;
80891;SDS011;70343;51.530;5.050;2023-08-24T12:46:21;8.40;;;6.13;;
80891;SDS011;70343;51.530;5.050;2023-08-24T12:48:47;10.63;;;6.63;;
80891;SDS011;70343;51.530;5.050;2023-08-24T12:51:13;9.60;;;6.13;;
80891;SDS011;70343;51.530;5.050;2023-08-24T12:53:38;8.05;;;5.30;;
80891;SDS011;70343;51.530;5.050;2023-08-24T12:56:04;6.72;;;5.03;;
80891;SDS011;70343;51.530;5.050;2023-08-24T12:58:30;8.88;;;5.13;;
80891;SDS011;70343;51.530;5.050;2023-08-24T13:00:56;7.28;;;5.65;;
80891;SDS011;70343;51.530;5.050;2023-08-24T13:03:21;10.60;;;5.38;;
80891;SDS011;70343;51.530;5.050;2023-08-24T13:05:47;5.63;;;5.13;;
80891;SDS011;70343;51.530;5.050;2023-08-24T13:08:13;8.45;;;5.35;;
80891;SDS011;70343;51.530;5.050;2023-08-24T13:10:38;8.15;;;4.75;;
80891;SDS011;70343;51.530;5.050;2023-08-24T13:13:04;7.63;;;5.00;;
80891;SDS011;70343;51.530;5.050;2023-08-24T13:15:29;8.77;;;4.82;;
80891;SDS011;70343;51.530;5.050;2023-08-24T13:17:55;6.47;;;4.90;;
80891;SDS011;70343;51.530;5.050;2023-08-24T13:20:23;8.13;;;4.85;;
80891;SDS011;70343;51.530;5.050;2023-08-24T13:22:49;8.52;;;4.32;;
80891;SDS011;70343;51.530;5.050;2023-08-24T13:25:14;7.60;;;4.13;;
80891;SDS011;70343;51.530;5.050;2023-08-24T13:27:40;7.20;;;4.35;;
80891;SDS011;70343;51.530;5.050;2023-08-24T13:30:05;8.45;;;4.22;;
80891;SDS011;70343;51.530;5.050;2023-08-24T13:32:31;9.05;;;4.68;;
80891;SDS011;70343;51.530;5.050;2023-08-24T13:34:57;7.32;;;4.03;;
80891;SDS011;70343;51.530;5.050;2023-08-24T13:37:23;9.82;;;4.50;;
80891;SDS011;70343;51.530;5.050;2023-08-24T13:39:49;6.88;;;3.85;;
80891;SDS011;70343;51.530;5.050;2023-08-24T13:42:16;6.70;;;4.07;;
80891;SDS011;70343;51.530;5.050;2023-08-24T13:44:41;7.40;;;4.53;;
80891;SDS011;70343;51.530;5.050;2023-08-24T13:47:07;6.38;;;4.05;;
80891;SDS011;70343;51.530;5.050;2023-08-24T13:49:32;6.50;;;4.07;;
80891;SDS011;70343;51.530;5.050;2023-08-24T13:51:58;6.18;;;4.07;;
80891;SDS011;70343;51.530;5.050;2023-08-24T13:54:23;5.88;;;3.80;;
80891;SDS011;70343;51.530;5.050;2023-08-24T13:56:51;6.35;;;3.30;;
80891;SDS011;70343;51.530;5.050;2023-08-24T13:59:19;6.57;;;3.85;;
80891;SDS011;70343;51.530;5.050;2023-08-24T14:01:45;6.13;;;3.67;;
80891;SDS011;70343;51.530;5.050;2023-08-24T14:04:10;3.92;;;3.10;;
80891;SDS011;70343;51.530;5.050;2023-08-24T14:06:36;4.22;;;3.65;;
80891;SDS011;70343;51.530;5.050;2023-08-24T14:09:02;8.30;;;3.75;;
80891;SDS011;70343;51.530;5.050;2023-08-24T14:11:28;5.88;;;3.83;;
80891;SDS011;70343;51.530;5.050;2023-08-24T14:13:54;4.88;;;3.15;;
80891;SDS011;70343;51.530;5.050;2023-08-24T14:16:20;4.93;;;3.47;;
80891;SDS011;70343;51.530;5.050;2023-08-24T14:18:46;5.63;;;3.67;;
80891;SDS011;70343;51.530;5.050;2023-08-24T14:21:12;4.68;;;3.30;;
80891;SDS011;70343;51.530;5.050;2023-08-24T14:23:38;5.22;;;3.42;;
80891;SDS011;70343;51.530;5.050;2023-08-24T14:26:04;5.03;;;3.50;;
80891;SDS011;70343;51.530;5.050;2023-08-24T14:31:24;4.47;;;3.00;;
80891;SDS011;70343;51.530;5.050;2023-08-24T14:33:51;6.15;;;3.20;;
80891;SDS011;70343;51.530;5.050;2023-08-24T14:36:18;4.45;;;3.40;;
80891;SDS011;70343;51.530;5.050;2023-08-24T14:38:45;3.95;;;3.25;;
80891;SDS011;70343;51.530;5.050;2023-08-24T14:41:11;5.05;;;3.38;;
80891;SDS011;70343;51.530;5.050;2023-08-24T14:43:38;4.28;;;3.00;;
80891;SDS011;70343;51.530;5.050;2023-08-24T14:46:04;5.13;;;2.90;;
80891;SDS011;70343;51.530;5.050;2023-08-24T14:48:32;4.20;;;3.08;;
80891;SDS011;70343;51.530;5.050;2023-08-24T14:50:58;8.13;;;3.35;;
80891;SDS011;70343;51.530;5.050;2023-08-24T14:53:24;5.15;;;3.00;;